Bridgeport, CT (06610)

7:30 AM EST on March 05, 2015 (GMT -0500)
Northern Part Of Town | Change Station
CLOSE
Current Station
Personal Weather Station
Location: Stratford, CT
Elevation: 100 ft
Nearby Weather Stations
Active Advisory: Winter Weather Advisory

Elev 100 ft 41.21 °N, 73.15 °W | Updated 4 seconds ago

Snow
Snow
27.7 °F
Feels Like 28 °F
N
1.6
Wind Variable Wind from North
Gusts 3.1 mph

Today
High -- | Low -- °F
--% Chance of Precip.
Yesterday
High -- | Low -- °F
Precip. -- in
6:21 AM 5:47 PM
Full, 100% visible
Pressure 30.05 in
Visibility 0.8 miles
Clouds Few 700 ft
Overcast 1500 ft
Windchill 28 °F
Dew Point 23 °F
Humidity 82%
Rainfall in
Snow Depth Not available.
UV 0 out of 12
Pollen .50 out of 12
Air Quality Not available.
Flu Activity Not available.
SPECI KBDR 051213Z 34009KT 3/4SM -SN BR FEW007 OVC015 M02/M02 A3005 RMK AO2 P0001 T10171022

More Conditions Fewer Conditions

Pressure 30.05 in
Visibility 0.8 miles
Clouds Few 700 ft
Overcast 1500 ft
Windchill 28 °F
Dew Point 23 °F
Humidity 82%
Rainfall in
Snow Depth Not available.
UV 0 out of 12
Pollen .50 out of 12
Air Quality Not available.
Flu Activity Not available.
SPECI KBDR 051213Z 34009KT 3/4SM -SN BR FEW007 OVC015 M02/M02 A3005 RMK AO2 P0001 T10171022

More Conditions Fewer Conditions

10-Day Weather Forecast

Almanac

Astronomy

Mar. 05, 2015 Rise Set
Actual Time
Civil Twilight
Nautical Twilight
Astronomical Twilight
Moon
Length of Visible Light
Length of Day
Tomorrow will be .
, % of the Moon is Illuminated

Today's Extremes

State Highs State Lows

Community

WunderPhotos

Upload Photos

1,802,736 photos uploaded!

WunderBlogs® & News

Nearby

Air Quality

  Air Quality AQ Index Pollutant
Not available.

Snow Depth

Station Depth Elevation

Earthquake Activity

City Distance Mag. Time & Date
Minimum magnitude displayed is 2.5.

Coastal Water Temperatures

Place Temperature

Nearby Weather Stations

Winter Weather Advisory
Statement as of 3:41 AM EST on March 05, 2015

... Winter Weather Advisory remains in effect until 7 PM EST this
evening...

* locations... coastal Connecticut... interior parts of northeast
New Jersey... and Rockland and Westchester counties in New York.

* Hazard types... snow.

* Accumulations... snow accumulation of 2 to 5 inches.

* Timing... snow... moderate at times this morning into early
afternoon... before tapering off this afternoon.

* Visibilities... one half mile or less at times.

* Temperatures... mid 30s early this morning... dropping into the
lower 20s by this afternoon.

* Impacts... hazardous travel conditions due to falling
temperatures and Road icing... reduced visibilities and
accumulating snow.

Precautionary/preparedness actions...

A Winter Weather Advisory means that periods of snow... sleet... or
freezing rain will cause travel difficulties. Be prepared for
slippery roads and limited visibilities... and use caution while
driving.